sensor_id;sensor_type;location;lat;lon;timestamp;pressure;altitude;pressure_sealevel;temperature;humidity
73842;BME280;62184;52.006;5.924;2023-02-04T00:01:57;102450.91;;;11.43;70.46
73842;BME280;62184;52.006;5.924;2023-02-04T00:04:23;102436.66;;;11.41;70.45
73842;BME280;62184;52.006;5.924;2023-02-04T00:06:50;102452.69;;;11.39;70.31
73842;BME280;62184;52.006;5.924;2023-02-04T00:09:16;102455.38;;;11.39;69.89
73842;BME280;62184;52.006;5.924;2023-02-04T00:11:42;102450.91;;;11.40;69.89
73842;BME280;62184;52.006;5.924;2023-02-04T00:14:11;102459.81;;;11.39;69.67
73842;BME280;62184;52.006;5.924;2023-02-04T00:16:38;102460.72;;;11.42;69.71
73842;BME280;62184;52.006;5.924;2023-02-04T00:19:04;102462.50;;;11.43;69.54
73842;BME280;62184;52.006;5.924;2023-02-04T00:21:31;102468.75;;;11.45;69.54
73842;BME280;62184;52.006;5.924;2023-02-04T00:23:57;102467.84;;;11.48;69.16
73842;BME280;62184;52.006;5.924;2023-02-04T00:26:23;102465.19;;;11.45;69.01
73842;BME280;62184;52.006;5.924;2023-02-04T00:28:50;102470.53;;;11.39;69.08
73842;BME280;62184;52.006;5.924;2023-02-04T00:31:19;102473.22;;;11.37;68.82
73842;BME280;62184;52.006;5.924;2023-02-04T00:33:45;102479.47;;;11.35;68.94
73842;BME280;62184;52.006;5.924;2023-02-04T00:36:12;102468.75;;;11.32;69.02
73842;BME280;62184;52.006;5.924;2023-02-04T00:38:38;102474.13;;;11.33;68.72
73842;BME280;62184;52.006;5.924;2023-02-04T00:41:05;102482.16;;;11.29;69.03
73842;BME280;62184;52.006;5.924;2023-02-04T00:43:31;102479.50;;;11.29;68.67
73842;BME280;62184;52.006;5.924;2023-02-04T00:45:57;102488.38;;;11.31;68.78
73842;BME280;62184;52.006;5.924;2023-02-04T00:48:27;102487.50;;;11.36;68.82
73842;BME280;62184;52.006;5.924;2023-02-04T00:50:53;102488.38;;;11.40;68.97
73842;BME280;62184;52.006;5.924;2023-02-04T00:53:20;102498.19;;;11.42;68.72
73842;BME280;62184;52.006;5.924;2023-02-04T00:55:46;102497.28;;;11.45;68.68
73842;BME280;62184;52.006;5.924;2023-02-04T00:58:13;102495.50;;;11.45;68.63
73842;BME280;62184;52.006;5.924;2023-02-04T01:00:39;102491.94;;;11.43;68.66
73842;BME280;62184;52.006;5.924;2023-02-04T01:03:06;102491.94;;;11.43;68.71
73842;BME280;62184;52.006;5.924;2023-02-04T01:05:35;102498.19;;;11.42;68.53
73842;BME280;62184;52.006;5.924;2023-02-04T01:08:01;102496.41;;;11.37;68.60
73842;BME280;62184;52.006;5.924;2023-02-04T01:10:28;102495.53;;;11.36;68.58
73842;BME280;62184;52.006;5.924;2023-02-04T01:12:54;102491.94;;;11.39;68.57
73842;BME280;62184;52.006;5.924;2023-02-04T01:15:21;102491.94;;;11.39;68.45
73842;BME280;62184;52.006;5.924;2023-02-04T01:17:47;102495.53;;;11.38;68.00
73842;BME280;62184;52.006;5.924;2023-02-04T01:20:15;102488.38;;;11.32;68.06
73842;BME280;62184;52.006;5.924;2023-02-04T01:22:44;102506.25;;;11.27;68.02
73842;BME280;62184;52.006;5.924;2023-02-04T01:25:10;102512.50;;;11.22;67.94
73842;BME280;62184;52.006;5.924;2023-02-04T01:27:37;102519.59;;;11.15;67.95
73842;BME280;62184;52.006;5.924;2023-02-04T01:30:04;102525.84;;;11.08;67.92
73842;BME280;62184;52.006;5.924;2023-02-04T01:32:31;102524.97;;;11.01;68.02
73842;BME280;62184;52.006;5.924;2023-02-04T01:34:58;102516.06;;;10.96;68.07
73842;BME280;62184;52.006;5.924;2023-02-04T01:37:24;102524.97;;;10.92;68.31
73842;BME280;62184;52.006;5.924;2023-02-04T01:39:53;102530.28;;;10.89;68.50
73842;BME280;62184;52.006;5.924;2023-02-04T01:42:20;102529.41;;;10.90;68.46
73842;BME280;62184;52.006;5.924;2023-02-04T01:44:47;102536.53;;;10.84;68.55
73842;BME280;62184;52.006;5.924;2023-02-04T01:47:14;102540.09;;;10.83;68.39
73842;BME280;62184;52.006;5.924;2023-02-04T01:49:41;102540.09;;;10.81;68.67
73842;BME280;62184;52.006;5.924;2023-02-04T01:52:08;102545.44;;;10.78;68.58
73842;BME280;62184;52.006;5.924;2023-02-04T01:54:36;102548.09;;;10.75;68.52
73842;BME280;62184;52.006;5.924;2023-02-04T01:57:08;102543.63;;;10.69;68.36
73842;BME280;62184;52.006;5.924;2023-02-04T01:59:42;102548.03;;;10.64;68.54
73842;BME280;62184;52.006;5.924;2023-02-04T02:02:37;102554.28;;;10.65;68.52
73842;BME280;62184;52.006;5.924;2023-02-04T02:05:05;102564.09;;;10.67;68.42
73842;BME280;62184;52.006;5.924;2023-02-04T02:07:33;102561.41;;;10.66;68.57
73842;BME280;62184;52.006;5.924;2023-02-04T02:09:59;102560.50;;;10.65;68.61
73842;BME280;62184;52.006;5.924;2023-02-04T02:12:29;102561.41;;;10.60;68.70
73842;BME280;62184;52.006;5.924;2023-02-04T02:14:56;102556.94;;;10.57;68.60
73842;BME280;62184;52.006;5.924;2023-02-04T02:17:22;102557.84;;;10.55;68.67
73842;BME280;62184;52.006;5.924;2023-02-04T02:19:49;102559.63;;;10.54;68.47
73842;BME280;62184;52.006;5.924;2023-02-04T02:22:19;102555.16;;;10.53;68.58
73842;BME280;62184;52.006;5.924;2023-02-04T02:24:53;102561.38;;;10.45;68.67
73842;BME280;62184;52.006;5.924;2023-02-04T02:27:20;102563.09;;;10.39;68.80
73842;BME280;62184;52.006;5.924;2023-02-04T02:29:47;102561.34;;;10.37;68.84
73842;BME280;62184;52.006;5.924;2023-02-04T02:32:15;102568.44;;;10.33;68.68
73842;BME280;62184;52.006;5.924;2023-02-04T02:34:42;102572.84;;;10.30;68.89
73842;BME280;62184;52.006;5.924;2023-02-04T02:37:11;102563.97;;;10.28;68.96
73842;BME280;62184;52.006;5.924;2023-02-04T02:39:38;102572.84;;;10.25;68.95
73842;BME280;62184;52.006;5.924;2023-02-04T02:42:14;102571.94;;;10.22;68.69
73842;BME280;62184;52.006;5.924;2023-02-04T02:44:43;102580.84;;;10.21;68.70
73842;BME280;62184;52.006;5.924;2023-02-04T02:47:12;102574.59;;;10.17;68.72
73842;BME280;62184;52.006;5.924;2023-02-04T02:49:42;102575.47;;;10.16;68.57
73842;BME280;62184;52.006;5.924;2023-02-04T02:52:10;102574.56;;;10.11;68.71
73842;BME280;62184;52.006;5.924;2023-02-04T02:54:38;102578.13;;;10.09;68.68
73842;BME280;62184;52.006;5.924;2023-02-04T02:57:14;102567.44;;;10.04;68.72
73842;BME280;62184;52.006;5.924;2023-02-04T02:59:42;102578.09;;;10.02;68.83
73842;BME280;62184;52.006;5.924;2023-02-04T03:02:10;102583.41;;;10.01;68.87
73842;BME280;62184;52.006;5.924;2023-02-04T03:04:43;102587.84;;;9.99;69.05
73842;BME280;62184;52.006;5.924;2023-02-04T03:07:16;102583.38;;;9.98;68.74
73842;BME280;62184;52.006;5.924;2023-02-04T03:09:46;102584.31;;;10.00;68.96
73842;BME280;62184;52.006;5.924;2023-02-04T03:12:15;102578.94;;;9.98;68.98
73842;BME280;62184;52.006;5.924;2023-02-04T03:14:41;102589.56;;;9.85;69.33
73842;BME280;62184;52.006;5.924;2023-02-04T03:17:09;102588.75;;;9.99;69.16
73842;BME280;62184;52.006;5.924;2023-02-04T03:19:37;102598.59;;;10.08;69.12
73842;BME280;62184;52.006;5.924;2023-02-04T03:22:06;102604.84;;;10.12;68.97
73842;BME280;62184;52.006;5.924;2023-02-04T03:24:33;102603.06;;;10.12;69.16
73842;BME280;62184;52.006;5.924;2023-02-04T03:27:01;102604.81;;;10.04;69.34
73842;BME280;62184;52.006;5.924;2023-02-04T03:29:30;102606.41;;;9.78;70.17
73842;BME280;62184;52.006;5.924;2023-02-04T03:31:57;102616.31;;;9.98;69.35
73842;BME280;62184;52.006;5.924;2023-02-04T03:34:23;102611.91;;;10.05;69.01
73842;BME280;62184;52.006;5.924;2023-02-04T03:36:49;102611.91;;;10.07;68.79
73842;BME280;62184;52.006;5.924;2023-02-04T03:39:16;102619.94;;;10.03;68.53
73842;BME280;62184;52.006;5.924;2023-02-04T03:41:42;102613.66;;;10.00;68.35
73842;BME280;62184;52.006;5.924;2023-02-04T03:44:09;102614.50;;;9.91;68.34
73842;BME280;62184;52.006;5.924;2023-02-04T03:46:38;102606.44;;;9.84;68.43
73842;BME280;62184;52.006;5.924;2023-02-04T03:49:04;102611.75;;;9.81;68.39
73842;BME280;62184;52.006;5.924;2023-02-04T03:51:31;102607.25;;;9.74;68.75
73842;BME280;62184;52.006;5.924;2023-02-04T03:53:57;102601.06;;;9.76;68.57
73842;BME280;62184;52.006;5.924;2023-02-04T03:56:24;102612.59;;;9.74;68.38
73842;BME280;62184;52.006;5.924;2023-02-04T03:58:50;102610.81;;;9.73;68.45
73842;BME280;62184;52.006;5.924;2023-02-04T04:01:16;102613.50;;;9.71;68.29
73842;BME280;62184;52.006;5.924;2023-02-04T04:03:45;102610.81;;;9.70;68.13
73842;BME280;62184;52.006;5.924;2023-02-04T04:06:12;102612.56;;;9.68;68.24
73842;BME280;62184;52.006;5.924;2023-02-04T04:08:38;102613.44;;;9.65;68.33
73842;BME280;62184;52.006;5.924;2023-02-04T04:11:05;102618.75;;;9.65;68.47
73842;BME280;62184;52.006;5.924;2023-02-04T04:13:31;102620.53;;;9.64;68.56
73842;BME280;62184;52.006;5.924;2023-02-04T04:15:58;102609.84;;;9.63;68.61
73842;BME280;62184;52.006;5.924;2023-02-04T04:18:24;102616.97;;;9.64;68.45
73842;BME280;62184;52.006;5.924;2023-02-04T04:20:53;102616.06;;;9.59;68.64
73842;BME280;62184;52.006;5.924;2023-02-04T04:23:19;102621.38;;;9.54;68.69
73842;BME280;62184;52.006;5.924;2023-02-04T04:25:46;102621.28;;;9.48;68.73
73842;BME280;62184;52.006;5.924;2023-02-04T04:28:12;102627.53;;;9.46;69.04
73842;BME280;62184;52.006;5.924;2023-02-04T04:30:39;102627.47;;;9.43;69.18
73842;BME280;62184;52.006;5.924;2023-02-04T04:33:05;102625.69;;;9.42;69.23
73842;BME280;62184;52.006;5.924;2023-02-04T04:35:32;102628.34;;;9.40;69.51
73842;BME280;62184;52.006;5.924;2023-02-04T04:38:01;102630.13;;;9.41;69.73
73842;BME280;62184;52.006;5.924;2023-02-04T04:40:27;102636.38;;;9.42;69.68
73842;BME280;62184;52.006;5.924;2023-02-04T04:42:54;102637.28;;;9.45;69.83
73842;BME280;62184;52.006;5.924;2023-02-04T04:45:21;102635.50;;;9.47;69.70
73842;BME280;62184;52.006;5.924;2023-02-04T04:47:47;102649.75;;;9.49;69.74
73842;BME280;62184;52.006;5.924;2023-02-04T04:50:14;102648.91;;;9.52;69.78
73842;BME280;62184;52.006;5.924;2023-02-04T04:52:41;102649.78;;;9.52;69.56
73842;BME280;62184;52.006;5.924;2023-02-04T04:55:10;102653.31;;;9.50;69.63
73842;BME280;62184;52.006;5.924;2023-02-04T04:57:36;102644.47;;;9.52;69.47
73842;BME280;62184;52.006;5.924;2023-02-04T05:00:04;102644.47;;;9.54;69.34
73842;BME280;62184;52.006;5.924;2023-02-04T05:02:32;102647.16;;;9.57;69.28
73842;BME280;62184;52.006;5.924;2023-02-04T05:04:59;102656.06;;;9.59;69.33
73842;BME280;62184;52.006;5.924;2023-02-04T05:07:25;102664.09;;;9.60;69.27
73842;BME280;62184;52.006;5.924;2023-02-04T05:09:51;102664.13;;;9.62;69.33
73842;BME280;62184;52.006;5.924;2023-02-04T05:12:20;102659.69;;;9.67;69.18
73842;BME280;62184;52.006;5.924;2023-02-04T05:14:47;102663.25;;;9.66;68.89
73842;BME280;62184;52.006;5.924;2023-02-04T05:17:13;102653.47;;;9.67;68.85
73842;BME280;62184;52.006;5.924;2023-02-04T05:19:40;102658.84;;;9.70;69.15
73842;BME280;62184;52.006;5.924;2023-02-04T05:22:06;102673.09;;;9.75;69.15
73842;BME280;62184;52.006;5.924;2023-02-04T05:24:32;102673.13;;;9.81;69.37
73842;BME280;62184;52.006;5.924;2023-02-04T05:26:59;102674.97;;;9.85;68.90
73842;BME280;62184;52.006;5.924;2023-02-04T05:29:28;102667.81;;;9.82;69.19
73842;BME280;62184;52.006;5.924;2023-02-04T05:31:54;102678.50;;;9.84;69.44
73842;BME280;62184;52.006;5.924;2023-02-04T05:34:21;102676.72;;;9.83;69.15
73842;BME280;62184;52.006;5.924;2023-02-04T05:36:47;102681.13;;;9.81;69.02
73842;BME280;62184;52.006;5.924;2023-02-04T05:39:13;102665.97;;;9.71;68.48
73842;BME280;62184;52.006;5.924;2023-02-04T05:41:40;102671.22;;;9.61;68.17
73842;BME280;62184;52.006;5.924;2023-02-04T05:44:06;102669.38;;;9.54;67.82
73842;BME280;62184;52.006;5.924;2023-02-04T05:46:35;102676.47;;;9.52;67.78
73842;BME280;62184;52.006;5.924;2023-02-04T05:49:02;102675.56;;;9.50;67.98
73842;BME280;62184;52.006;5.924;2023-02-04T05:51:28;102675.56;;;9.52;67.97
73842;BME280;62184;52.006;5.924;2023-02-04T05:53:55;102675.59;;;9.53;68.14
73842;BME280;62184;52.006;5.924;2023-02-04T05:56:21;102677.38;;;9.53;68.23
73842;BME280;62184;52.006;5.924;2023-02-04T05:58:47;102688.94;;;9.53;68.33
73842;BME280;62184;52.006;5.924;2023-02-04T06:01:14;102686.28;;;9.56;68.12
73842;BME280;62184;52.006;5.924;2023-02-04T06:03:43;102689.84;;;9.57;68.06
73842;BME280;62184;52.006;5.924;2023-02-04T06:06:09;102692.25;;;9.31;68.96
73842;BME280;62184;52.006;5.924;2023-02-04T06:08:36;102689.50;;;9.23;69.54
73842;BME280;62184;52.006;5.924;2023-02-04T06:11:02;102689.53;;;9.25;69.60
73842;BME280;62184;52.006;5.924;2023-02-04T06:13:28;102694.88;;;9.26;69.73
73842;BME280;62184;52.006;5.924;2023-02-04T06:15:55;102700.22;;;9.26;69.70
73842;BME280;62184;52.006;5.924;2023-02-04T06:18:21;102701.13;;;9.27;69.69
73842;BME280;62184;52.006;5.924;2023-02-04T06:20:50;102695.78;;;9.30;69.41
73842;BME280;62184;52.006;5.924;2023-02-04T06:23:17;102695.84;;;9.33;69.29
73842;BME280;62184;52.006;5.924;2023-02-04T06:25:43;102694.41;;;9.72;68.60
73842;BME280;62184;52.006;5.924;2023-02-04T06:28:10;102699.88;;;9.85;68.35
73842;BME280;62184;52.006;5.924;2023-02-04T06:30:36;102700.84;;;9.95;68.02
73842;BME280;62184;52.006;5.924;2023-02-04T06:33:02;102706.22;;;10.01;67.99
73842;BME280;62184;52.006;5.924;2023-02-04T06:35:29;102713.38;;;10.03;67.59
73842;BME280;62184;52.006;5.924;2023-02-04T06:37:58;102710.69;;;10.02;67.72
73842;BME280;62184;52.006;5.924;2023-02-04T06:40:24;102714.22;;;10.01;67.46
73842;BME280;62184;52.006;5.924;2023-02-04T06:42:51;102713.38;;;10.03;67.51
73842;BME280;62184;52.006;5.924;2023-02-04T06:45:17;102731.16;;;10.06;67.64
73842;BME280;62184;52.006;5.924;2023-02-04T06:47:44;102730.31;;;10.09;67.80
73842;BME280;62184;52.006;5.924;2023-02-04T06:50:10;102726.75;;;10.10;67.67
73842;BME280;62184;52.006;5.924;2023-02-04T06:52:36;102724.97;;;10.09;67.53
73842;BME280;62184;52.006;5.924;2023-02-04T06:55:06;102728.56;;;10.12;67.66
73842;BME280;62184;52.006;5.924;2023-02-04T06:57:32;102737.44;;;10.14;67.58
73842;BME280;62184;52.006;5.924;2023-02-04T06:59:59;102735.66;;;10.15;67.65
73842;BME280;62184;52.006;5.924;2023-02-04T07:02:26;102744.59;;;10.17;67.79
73842;BME280;62184;52.006;5.924;2023-02-04T07:04:52;102750.84;;;10.19;67.89
73842;BME280;62184;52.006;5.924;2023-02-04T07:07:18;102759.75;;;10.19;68.08
73842;BME280;62184;52.006;5.924;2023-02-04T07:09:45;102754.41;;;10.22;68.28
73842;BME280;62184;52.006;5.924;2023-02-04T07:12:14;102750.91;;;10.31;68.21
73842;BME280;62184;52.006;5.924;2023-02-04T07:14:40;102759.88;;;10.34;68.03
73842;BME280;62184;52.006;5.924;2023-02-04T07:17:07;102762.56;;;10.37;68.01
73842;BME280;62184;52.006;5.924;2023-02-04T07:19:33;102768.81;;;10.41;68.24
73842;BME280;62184;52.006;5.924;2023-02-04T07:21:59;102764.38;;;10.45;68.14
73842;BME280;62184;52.006;5.924;2023-02-04T07:24:26;102769.72;;;10.48;68.06
73842;BME280;62184;52.006;5.924;2023-02-04T07:26:52;102771.56;;;10.52;67.88
73842;BME280;62184;52.006;5.924;2023-02-04T07:29:21;102767.94;;;10.47;68.12
73842;BME280;62184;52.006;5.924;2023-02-04T07:31:48;102772.41;;;10.45;68.19
73842;BME280;62184;52.006;5.924;2023-02-04T07:34:14;102771.53;;;10.49;68.26
73842;BME280;62184;52.006;5.924;2023-02-04T07:36:40;102780.47;;;10.54;68.24
73842;BME280;62184;52.006;5.924;2023-02-04T07:39:07;102792.03;;;10.56;68.18
73842;BME280;62184;52.006;5.924;2023-02-04T07:41:34;102787.63;;;10.55;68.19
73842;BME280;62184;52.006;5.924;2023-02-04T07:44:02;102795.63;;;10.55;68.27
73842;BME280;62184;52.006;5.924;2023-02-04T07:46:31;102798.19;;;10.43;68.60
73842;BME280;62184;52.006;5.924;2023-02-04T07:49:00;102802.75;;;10.54;68.43
73842;BME280;62184;52.006;5.924;2023-02-04T07:51:27;102801.91;;;10.61;68.23
73842;BME280;62184;52.006;5.924;2023-02-04T07:53:54;102808.16;;;10.68;68.38
73842;BME280;62184;52.006;5.924;2023-02-04T07:56:21;102811.81;;;10.74;68.22
73842;BME280;62184;52.006;5.924;2023-02-04T07:58:48;102825.22;;;10.82;68.07
73842;BME280;62184;52.006;5.924;2023-02-04T08:01:15;102824.34;;;10.85;68.08
73842;BME280;62184;52.006;5.924;2023-02-04T08:03:44;102826.13;;;10.84;67.79
73842;BME280;62184;52.006;5.924;2023-02-04T08:06:10;102823.44;;;10.84;68.22
73842;BME280;62184;52.006;5.924;2023-02-04T08:08:36;102834.16;;;10.87;68.19
73842;BME280;62184;52.006;5.924;2023-02-04T08:11:03;102827.94;;;10.87;68.02
73842;BME280;62184;52.006;5.924;2023-02-04T08:13:30;102836.84;;;10.90;68.06
73842;BME280;62184;52.006;5.924;2023-02-04T08:15:56;102836.00;;;10.94;68.08
73842;BME280;62184;52.006;5.924;2023-02-04T08:18:23;102841.34;;;10.99;68.07
73842;BME280;62184;52.006;5.924;2023-02-04T08:20:52;102842.28;;;11.04;68.09
73842;BME280;62184;52.006;5.924;2023-02-04T08:23:18;102846.78;;;11.11;68.02
73842;BME280;62184;52.006;5.924;2023-02-04T08:25:45;102851.22;;;11.15;68.20
73842;BME280;62184;52.006;5.924;2023-02-04T08:28:11;102859.28;;;11.23;68.22
73842;BME280;62184;52.006;5.924;2023-02-04T08:30:37;102848.63;;;11.30;68.18
73842;BME280;62184;52.006;5.924;2023-02-04T08:33:04;102854.91;;;11.37;67.96
73842;BME280;62184;52.006;5.924;2023-02-04T08:35:30;102861.16;;;11.42;67.92
73842;BME280;62184;52.006;5.924;2023-02-04T08:37:59;102861.19;;;11.48;67.89
73842;BME280;62184;52.006;5.924;2023-02-04T08:40:26;102856.78;;;11.54;67.90
73842;BME280;62184;52.006;5.924;2023-02-04T08:42:52;102859.47;;;11.65;67.95
73842;BME280;62184;52.006;5.924;2023-02-04T08:45:19;102857.72;;;11.76;67.61
73842;BME280;62184;52.006;5.924;2023-02-04T08:47:45;102859.50;;;11.82;67.39
73842;BME280;62184;52.006;5.924;2023-02-04T08:50:12;102863.09;;;11.85;67.24
73842;BME280;62184;52.006;5.924;2023-02-04T08:52:38;102866.66;;;11.83;67.06
73842;BME280;62184;52.006;5.924;2023-02-04T08:55:08;102858.66;;;11.87;67.07
73842;BME280;62184;52.006;5.924;2023-02-04T08:57:34;102860.44;;;11.88;67.17
73842;BME280;62184;52.006;5.924;2023-02-04T09:00:01;102859.53;;;11.88;67.06
73842;BME280;62184;52.006;5.924;2023-02-04T09:02:27;102869.34;;;11.89;67.04
73842;BME280;62184;52.006;5.924;2023-02-04T09:04:54;102858.66;;;11.97;66.95
73842;BME280;62184;52.006;5.924;2023-02-04T09:07:20;102862.22;;;12.00;66.68
73842;BME280;62184;52.006;5.924;2023-02-04T09:09:47;102863.16;;;12.05;66.60
73842;BME280;62184;52.006;5.924;2023-02-04T09:12:16;102871.19;;;12.14;66.49
73842;BME280;62184;52.006;5.924;2023-02-04T09:14:42;102868.53;;;12.25;66.50
73842;BME280;62184;52.006;5.924;2023-02-04T09:17:09;102873.91;;;12.36;66.70
73842;BME280;62184;52.006;5.924;2023-02-04T09:19:35;102881.06;;;12.46;66.34
73842;BME280;62184;52.006;5.924;2023-02-04T09:22:01;102881.03;;;12.56;66.38
73842;BME280;62184;52.006;5.924;2023-02-04T09:24:28;102889.97;;;12.66;66.22
73842;BME280;62184;52.006;5.924;2023-02-04T09:26:54;102881.06;;;12.72;65.92
73842;BME280;62184;52.006;5.924;2023-02-04T09:29:23;102890.00;;;12.72;65.89
73842;BME280;62184;52.006;5.924;2023-02-04T09:31:50;102889.09;;;12.70;65.53
73842;BME280;62184;52.006;5.924;2023-02-04T09:34:16;102878.38;;;12.70;65.79
73842;BME280;62184;52.006;5.924;2023-02-04T09:36:43;102884.59;;;12.77;65.37
73842;BME280;62184;52.006;5.924;2023-02-04T09:39:09;102882.81;;;12.79;64.95
73842;BME280;62184;52.006;5.924;2023-02-04T09:41:37;102881.94;;;12.72;64.88
73842;BME280;62184;52.006;5.924;2023-02-04T09:44:08;102885.50;;;12.68;64.81
73842;BME280;62184;52.006;5.924;2023-02-04T09:46:45;102886.41;;;12.56;64.76
73842;BME280;62184;52.006;5.924;2023-02-04T09:49:14;102873.91;;;12.52;65.01
73842;BME280;62184;52.006;5.924;2023-02-04T09:51:41;102881.03;;;12.50;65.31
73842;BME280;62184;52.006;5.924;2023-02-04T09:54:12;102886.41;;;12.50;65.36
73842;BME280;62184;52.006;5.924;2023-02-04T09:56:39;102886.41;;;12.61;65.72
73842;BME280;62184;52.006;5.924;2023-02-04T09:59:10;102898.03;;;12.71;65.37
73842;BME280;62184;52.006;5.924;2023-02-04T10:01:38;102897.13;;;12.78;65.61
73842;BME280;62184;52.006;5.924;2023-02-04T10:04:09;102904.25;;;12.91;65.81
73842;BME280;62184;52.006;5.924;2023-02-04T10:06:39;102909.63;;;12.95;65.44
73842;BME280;62184;52.006;5.924;2023-02-04T10:09:08;102904.25;;;13.03;65.52
73842;BME280;62184;52.006;5.924;2023-02-04T10:11:37;102908.72;;;13.04;65.06
73842;BME280;62184;52.006;5.924;2023-02-04T10:14:10;102907.81;;;13.11;65.09
73842;BME280;62184;52.006;5.924;2023-02-04T10:16:41;102915.81;;;13.19;65.24
73842;BME280;62184;52.006;5.924;2023-02-04T10:19:14;102906.84;;;13.24;65.10
73842;BME280;62184;52.006;5.924;2023-02-04T10:21:46;102906.84;;;13.36;65.20
73842;BME280;62184;52.006;5.924;2023-02-04T10:24:14;102917.56;;;13.47;64.93
73842;BME280;62184;52.006;5.924;2023-02-04T10:26:42;102909.50;;;13.55;64.41
73842;BME280;62184;52.006;5.924;2023-02-04T10:29:13;102912.13;;;13.59;64.64
73842;BME280;62184;52.006;5.924;2023-02-04T10:31:43;102912.13;;;13.59;64.24
73842;BME280;62184;52.006;5.924;2023-02-04T10:34:16;102907.66;;;13.60;64.14
73842;BME280;62184;52.006;5.924;2023-02-04T10:36:45;102908.56;;;13.60;63.83
73842;BME280;62184;52.006;5.924;2023-02-04T10:39:16;102914.81;;;13.56;63.63
73842;BME280;62184;52.006;5.924;2023-02-04T10:41:46;102916.59;;;13.65;64.03
73842;BME280;62184;52.006;5.924;2023-02-04T10:44:16;102917.41;;;13.82;64.21
73842;BME280;62184;52.006;5.924;2023-02-04T10:46:44;102920.03;;;13.94;64.08
73842;BME280;62184;52.006;5.924;2023-02-04T10:49:19;102928.03;;;14.05;64.01
73842;BME280;62184;52.006;5.924;2023-02-04T10:51:49;102913.59;;;14.19;63.76
73842;BME280;62184;52.006;5.924;2023-02-04T10:54:18;102921.56;;;14.33;63.77
73842;BME280;62184;52.006;5.924;2023-02-04T10:56:46;102915.22;;;14.42;63.18
73842;BME280;62184;52.006;5.924;2023-02-04T10:59:20;102912.50;;;14.48;63.07
73842;BME280;62184;52.006;5.924;2023-02-04T11:01:49;102921.41;;;14.59;62.30
73842;BME280;62184;52.006;5.924;2023-02-04T11:04:18;102913.22;;;14.73;62.21
73842;BME280;62184;52.006;5.924;2023-02-04T11:06:44;102911.28;;;14.88;62.25
73842;BME280;62184;52.006;5.924;2023-02-04T11:09:12;102913.81;;;15.04;61.64
73842;BME280;62184;52.006;5.924;2023-02-04T11:11:44;102917.31;;;15.13;61.32
73842;BME280;62184;52.006;5.924;2023-02-04T11:14:26;102912.75;;;15.17;61.38
73842;BME280;62184;52.006;5.924;2023-02-04T11:16:56;102913.63;;;15.22;61.17
73842;BME280;62184;52.006;5.924;2023-02-04T11:19:34;102904.59;;;15.26;60.86
73842;BME280;62184;52.006;5.924;2023-02-04T11:22:07;102909.06;;;15.30;60.60
73842;BME280;62184;52.006;5.924;2023-02-04T11:24:46;102914.28;;;15.41;60.22
73842;BME280;62184;52.006;5.924;2023-02-04T11:27:20;102902.66;;;15.40;59.94
73842;BME280;62184;52.006;5.924;2023-02-04T11:29:49;102917.03;;;15.38;59.34
73842;BME280;62184;52.006;5.924;2023-02-04T11:32:33;102912.72;;;15.23;58.50
73842;BME280;62184;52.006;5.924;2023-02-04T11:35:23;102911.97;;;15.09;59.34
73842;BME280;62184;52.006;5.924;2023-02-04T11:37:51;102906.63;;;15.04;59.39
73842;BME280;62184;52.006;5.924;2023-02-04T11:40:35;102909.34;;;15.00;59.42
73842;BME280;62184;52.006;5.924;2023-02-04T11:43:10;102910.25;;;15.00;59.37
73842;BME280;62184;52.006;5.924;2023-02-04T11:45:40;102908.44;;;15.05;59.20
73842;BME280;62184;52.006;5.924;2023-02-04T11:48:12;102916.41;;;15.14;59.13
73842;BME280;62184;52.006;5.924;2023-02-04T11:50:54;102904.66;;;15.20;58.36
73842;BME280;62184;52.006;5.924;2023-02-04T11:53:23;102913.56;;;15.28;58.65
73842;BME280;62184;52.006;5.924;2023-02-04T11:55:49;102917.97;;;15.32;57.96
73842;BME280;62184;52.006;5.924;2023-02-04T11:58:17;102910.84;;;15.29;57.37
73842;BME280;62184;52.006;5.924;2023-02-04T12:00:45;102912.53;;;15.38;58.06
73842;BME280;62184;52.006;5.924;2023-02-04T12:03:22;102915.03;;;15.53;57.70
73842;BME280;62184;52.006;5.924;2023-02-04T12:05:53;102914.22;;;15.47;57.24
73842;BME280;62184;52.006;5.924;2023-02-04T12:08:29;102910.78;;;15.32;56.85
73842;BME280;62184;52.006;5.924;2023-02-04T12:11:02;102911.78;;;15.25;57.25
73842;BME280;62184;52.006;5.924;2023-02-04T12:13:30;102910.84;;;15.29;56.98
73842;BME280;62184;52.006;5.924;2023-02-04T12:15:58;102907.47;;;15.08;57.34
73842;BME280;62184;52.006;5.924;2023-02-04T12:18:26;102903.72;;;15.24;56.88
73842;BME280;62184;52.006;5.924;2023-02-04T12:20:57;102907.41;;;15.15;56.77
73842;BME280;62184;52.006;5.924;2023-02-04T12:23:25;102907.56;;;15.02;56.28
73842;BME280;62184;52.006;5.924;2023-02-04T12:25:53;102905.84;;;14.91;56.43
73842;BME280;62184;52.006;5.924;2023-02-04T12:28:20;102910.41;;;14.83;56.60
73842;BME280;62184;52.006;5.924;2023-02-04T12:30:47;102908.59;;;14.88;56.72
73842;BME280;62184;52.006;5.924;2023-02-04T12:33:14;102915.69;;;14.96;56.80
73842;BME280;62184;52.006;5.924;2023-02-04T12:35:40;102917.31;;;15.12;56.81
73842;BME280;62184;52.006;5.924;2023-02-04T12:38:10;102907.34;;;15.21;56.54
73842;BME280;62184;52.006;5.924;2023-02-04T12:40:37;102905.66;;;15.11;55.37
73842;BME280;62184;52.006;5.924;2023-02-04T12:43:03;102920.03;;;15.09;56.22
73842;BME280;62184;52.006;5.924;2023-02-04T12:45:30;102913.75;;;15.10;55.90
73842;BME280;62184;52.006;5.924;2023-02-04T12:47:56;102911.94;;;15.12;55.64
73842;BME280;62184;52.006;5.924;2023-02-04T12:50:23;102918.13;;;15.18;55.54
73842;BME280;62184;52.006;5.924;2023-02-04T12:52:49;102912.84;;;15.12;54.72
73842;BME280;62184;52.006;5.924;2023-02-04T12:55:22;102909.25;;;15.09;55.00
73842;BME280;62184;52.006;5.924;2023-02-04T12:57:50;102907.44;;;15.14;55.35